Time;durP1;ratioP1;P1;durP2;ratioP2;P2;SDS_P1;SDS_P2;PMS_P1;PMS_P2;Temp;Humidity;BMP_temperature;BMP_pressure;BME280_temperature;BME280_humidity;BME280_pressure;Samples;Min_cycle;Max_cycle;Signal;HPM_P1;HPM_P2
2022/08/22 00:02:16;;;;;;;;;;;;;;;16.32;100.00;101723.41;5112193;28;19931;-37
2022/08/22 00:04:51;;;;;;;;;;;;;;;16.29;100.00;101728.84;5107172;28;20278;-32
2022/08/22 00:07:23;;;;;;;;;;;;;;;16.26;100.00;101721.84;5111305;28;19924;-32
2022/08/22 00:09:56;;;;;;;;;;;;;;;16.26;100.00;101718.22;5106602;28;19931;-31
2022/08/22 00:12:26;;;;;;;;;;;;;;;16.23;100.00;101713.19;5113729;28;19946;-40
2022/08/22 00:14:58;;;;;;;;;;;;;;;16.18;100.00;101717.81;5115868;28;20280;-39
2022/08/22 00:17:36;;;;;;;;;;;;;;;16.15;100.00;101721.28;5116091;28;19923;-37
2022/08/22 00:20:08;;;;;;;;;;;;;;;16.13;100.00;101722.72;5115339;28;19924;-30
2022/08/22 00:22:40;;;;;;;;;;;;;;;16.09;100.00;101722.53;5115937;28;19930;-30
2022/08/22 00:25:20;;;;;;;;;;;;;;;16.06;100.00;101728.78;5115632;28;19982;-36
2022/08/22 00:27:54;;;;;;;;;;;;;;;16.02;100.00;101718.47;5115079;28;20380;-31
2022/08/22 00:30:22;;;;;;;;;;;;;;;16.00;100.00;101726.38;5115713;28;19924;-30
2022/08/22 00:32:50;;;;;;;;;;;;;;;15.97;100.00;101727.88;5115776;28;20384;-39
2022/08/22 00:35:23;;;;;;;;;;;;;;;15.93;100.00;101726.81;5114754;28;19924;-36
2022/08/22 00:37:56;;;;;;;;;;;;;;;15.91;100.00;101728.28;5115912;28;19924;-30
2022/08/22 00:40:30;;;;;;;;;;;;;;;15.88;100.00;101724.09;5115783;28;20280;-32
2022/08/22 00:43:11;;;;;;;;;;;;;;;15.89;100.00;101736.19;5114894;28;19927;-36
2022/08/22 00:45:48;;;;;;;;;;;;;;;15.84;100.00;101734.31;5115493;28;19969;-31
2022/08/22 00:48:26;;;;;;;;;;;;;;;15.84;100.00;101728.69;5114643;28;20033;-30
2022/08/22 00:51:07;;;;;;;;;;;;;;;15.81;100.00;101724.53;5115557;28;19930;-32
2022/08/22 00:53:41;;;;;;;;;;;;;;;15.79;100.00;101728.78;5115283;28;19931;-31
2022/08/22 00:56:20;;;;;;;;;;;;;;;15.76;100.00;101727.47;5114379;28;19955;-30
2022/08/22 00:59:06;;;;;;;;;;;;;;;15.73;100.00;101721.63;5115199;28;20336;-38
2022/08/22 01:01:53;;;;;;;;;;;;;;;15.70;100.00;101714.63;5110963;28;20064;-38
2022/08/22 01:04:35;;;;;;;;;;;;;;;15.69;100.00;101714.94;5112305;28;19935;-36
2022/08/22 01:07:11;;;;;;;;;;;;;;;15.70;100.00;101717.44;5102437;28;20019;-30
2022/08/22 01:09:46;;;;;;;;;;;;;;;15.73;100.00;101713.19;5112630;28;20426;-30
2022/08/22 01:12:19;;;;;;;;;;;;;;;15.74;100.00;101718.50;5114916;28;20365;-30
2022/08/22 01:14:50;;;;;;;;;;;;;;;15.73;100.00;101716.84;5114723;28;19928;-30
2022/08/22 01:17:44;;;;;;;;;;;;;;;15.69;100.00;101717.75;5114012;28;20050;-31
2022/08/22 01:20:27;;;;;;;;;;;;;;;15.63;100.00;101721.81;5115216;28;19939;-33
2022/08/22 01:23:05;;;;;;;;;;;;;;;15.58;100.00;101711.53;5111574;28;19924;-31
2022/08/22 01:25:55;;;;;;;;;;;;;;;15.57;100.00;101711.84;5113827;28;19924;-35
2022/08/22 01:28:54;;;;;;;;;;;;;;;15.54;100.00;101713.25;5111355;28;20397;-31
2022/08/22 01:31:41;;;;;;;;;;;;;;;15.50;100.00;101712.19;5103792;27;19933;-29
2022/08/22 01:34:24;;;;;;;;;;;;;;;15.47;100.00;101710.84;5104866;28;20018;-30
2022/08/22 01:37:06;;;;;;;;;;;;;;;15.44;100.00;101714.28;5114556;28;19924;-30
2022/08/22 01:39:43;;;;;;;;;;;;;;;15.42;100.00;101724.16;5114409;28;19924;-32
2022/08/22 01:42:30;;;;;;;;;;;;;;;15.39;100.00;101716.34;5114281;28;19931;-34
2022/08/22 01:45:18;;;;;;;;;;;;;;;15.37;100.00;101719.50;5113532;28;20339;-31
2022/08/22 01:47:50;;;;;;;;;;;;;;;15.35;100.00;101726.56;5114543;28;19928;-30
2022/08/22 01:50:23;;;;;;;;;;;;;;;15.34;100.00;101719.28;5114075;28;19966;-31
2022/08/22 01:52:57;;;;;;;;;;;;;;;15.34;100.00;101725.75;5113595;28;20373;-29
2022/08/22 01:55:29;;;;;;;;;;;;;;;15.32;100.00;101713.97;5114297;28;19930;-30
2022/08/22 01:57:59;;;;;;;;;;;;;;;15.32;100.00;101728.03;5114255;28;19924;-35
2022/08/22 02:00:32;;;;;;;;;;;;;;;15.31;100.00;101731.97;5114261;28;19947;-30
2022/08/22 02:03:12;;;;;;;;;;;;;;;15.30;100.00;101730.31;5113995;28;19924;-32
2022/08/22 02:05:46;;;;;;;;;;;;;;;15.30;100.00;101726.66;5113284;28;19924;-31
2022/08/22 02:08:21;;;;;;;;;;;;;;;15.30;100.00;101724.69;5114080;28;19924;-35
2022/08/22 02:10:54;;;;;;;;;;;;;;;15.28;100.00;101724.16;5114020;28;20034;-35
2022/08/22 02:13:30;;;;;;;;;;;;;;;15.28;100.00;101720.50;5112876;28;19959;-30
2022/08/22 02:16:05;;;;;;;;;;;;;;;15.28;100.00;101714.88;5114100;28;19924;-29
2022/08/22 02:18:41;;;;;;;;;;;;;;;15.27;100.00;101719.69;5114048;28;19931;-30
2022/08/22 02:21:16;;;;;;;;;;;;;;;15.25;100.00;101719.16;5113444;28;19934;-34
2022/08/22 02:23:50;;;;;;;;;;;;;;;15.23;100.00;101713.00;5113600;28;19930;-34
2022/08/22 02:26:20;;;;;;;;;;;;;;;15.21;100.00;101720.91;5112812;28;19932;-29
2022/08/22 02:28:53;;;;;;;;;;;;;;;15.18;100.00;101718.75;5113653;28;19928;-29
2022/08/22 02:31:32;;;;;;;;;;;;;;;15.15;100.00;101723.00;5113588;28;19989;-32
2022/08/22 02:34:01;;;;;;;;;;;;;;;15.12;100.00;101718.00;5112729;27;19930;-32
2022/08/22 02:36:32;;;;;;;;;;;;;;;15.11;100.00;101723.91;5113072;28;19928;-29
2022/08/22 02:39:04;;;;;;;;;;;;;;;15.08;100.00;101718.91;5113595;28;19924;-38
2022/08/22 02:41:37;;;;;;;;;;;;;;;15.07;100.00;101725.66;5112676;28;19931;-35
2022/08/22 02:44:13;;;;;;;;;;;;;;;15.05;100.00;101722.34;5113237;28;20399;-32
2022/08/22 02:46:45;;;;;;;;;;;;;;;15.03;100.00;101719.00;5113275;28;19927;-29
2022/08/22 02:49:19;;;;;;;;;;;;;;;15.00;100.00;101726.06;5112566;28;20018;-31
2022/08/22 02:51:51;;;;;;;;;;;;;;;15.00;100.00;101725.22;5113229;28;19924;-32
2022/08/22 02:54:23;;;;;;;;;;;;;;;14.97;100.00;101720.25;5112357;28;19928;-34
2022/08/22 02:56:53;;;;;;;;;;;;;;;14.96;100.00;101724.19;5113143;28;20397;-36
2022/08/22 02:59:30;;;;;;;;;;;;;;;14.94;100.00;101723.66;5112932;28;19923;-29
2022/08/22 03:02:18;;;;;;;;;;;;;;;14.92;100.00;101723.97;5101515;28;19928;-36
2022/08/22 03:04:51;;;;;;;;;;;;;;;14.91;100.00;101727.09;5112494;28;19928;-34
2022/08/22 03:07:26;;;;;;;;;;;;;;;14.90;100.00;101719.78;5112535;28;19927;-34
2022/08/22 03:09:59;;;;;;;;;;;;;;;14.88;100.00;101710.84;5111894;28;19924;-34
2022/08/22 03:12:30;;;;;;;;;;;;;;;14.88;100.00;101713.66;5113154;28;19923;-34
2022/08/22 03:15:01;;;;;;;;;;;;;;;14.88;100.00;101705.22;5112948;28;19935;-36
2022/08/22 03:17:31;;;;;;;;;;;;;;;14.89;100.00;101702.09;5101300;28;19928;-34
2022/08/22 03:20:05;;;;;;;;;;;;;;;14.92;100.00;101700.66;5112659;28;20281;-34
2022/08/22 03:22:38;;;;;;;;;;;;;;;14.94;100.00;101698.38;5107256;28;19931;-30
2022/08/22 03:25:10;;;;;;;;;;;;;;;14.95;100.00;101700.03;5101056;28;20308;-30
2022/08/22 03:27:40;;;;;;;;;;;;;;;14.96;100.00;101688.50;5112689;28;19932;-34
2022/08/22 03:30:11;;;;;;;;;;;;;;;14.97;100.00;101686.50;5111840;28;19927;-32
2022/08/22 03:32:49;;;;;;;;;;;;;;;14.96;100.00;101684.84;5112128;28;20424;-33
2022/08/22 03:35:27;;;;;;;;;;;;;;;14.97;100.00;101669.66;5112434;28;19933;-30
2022/08/22 03:37:57;;;;;;;;;;;;;;;14.97;100.00;101669.66;5111691;28;20385;-41
2022/08/22 03:40:30;;;;;;;;;;;;;;;14.96;100.00;101671.63;5112508;28;20300;-40
2022/08/22 03:43:07;;;;;;;;;;;;;;;14.98;100.00;101666.53;5112307;28;20026;-37
2022/08/22 03:45:47;;;;;;;;;;;;;;;15.03;100.00;101662.78;5111773;28;19947;-36
2022/08/22 03:48:37;;;;;;;;;;;;;;;15.04;100.00;101664.44;5115268;28;20266;-40
2022/08/22 03:51:30;;;;;;;;;;;;;;;15.02;100.00;101666.72;5106426;28;19932;-36
2022/08/22 03:54:25;;;;;;;;;;;;;;;15.00;100.00;101664.22;5107996;28;19924;-30
2022/08/22 03:57:17;;;;;;;;;;;;;;;14.97;100.00;101670.50;5116497;28;19928;-36
2022/08/22 04:00:10;;;;;;;;;;;;;;;14.95;100.00;101677.56;5116040;28;19924;-30
2022/08/22 04:02:52;;;;;;;;;;;;;;;14.91;100.00;101676.50;5100704;28;20278;-30
2022/08/22 04:05:33;;;;;;;;;;;;;;;14.91;100.00;101682.13;5071791;28;19934;-32
2022/08/22 04:08:18;;;;;;;;;;;;;;;14.88;100.00;101688.34;5116163;28;19924;-31
2022/08/22 04:11:06;;;;;;;;;;;;;;;14.83;100.00;101684.47;5108468;28;19923;-30
2022/08/22 04:13:48;;;;;;;;;;;;;;;14.79;100.00;101685.41;5115394;28;19928;-30
2022/08/22 04:16:34;;;;;;;;;;;;;;;14.75;100.00;101690.81;5100413;28;20044;-33
2022/08/22 04:19:16;;;;;;;;;;;;;;;14.72;100.00;101691.44;5084594;28;19927;-35
2022/08/22 04:22:05;;;;;;;;;;;;;;;14.70;100.00;101690.91;5116124;28;20333;-31
2022/08/22 04:24:48;;;;;;;;;;;;;;;14.69;100.00;101694.84;5115059;28;19978;-30
2022/08/22 04:27:24;;;;;;;;;;;;;;;14.67;100.00;101696.28;5106058;28;19924;-30
2022/08/22 04:29:55;;;;;;;;;;;;;;;14.65;100.00;101695.75;5104904;28;19930;-37
2022/08/22 04:32:27;;;;;;;;;;;;;;;14.64;100.00;101699.72;5115693;28;19923;-29
2022/08/22 04:34:59;;;;;;;;;;;;;;;14.63;100.00;101703.66;5114830;27;19930;-33
2022/08/22 04:37:34;;;;;;;;;;;;;;;14.60;100.00;101710.72;5104978;28;19923;-29
2022/08/22 04:40:05;;;;;;;;;;;;;;;14.60;100.00;101716.34;5114924;28;19939;-31
2022/08/22 04:42:36;;;;;;;;;;;;;;;14.57;100.00;101716.97;5115610;28;19924;-35
2022/08/22 04:45:07;;;;;;;;;;;;;;;14.57;100.00;101718.94;5115526;28;19938;-31
2022/08/22 04:47:37;;;;;;;;;;;;;;;14.54;100.00;101723.19;5113680;28;19930;-38
2022/08/22 04:50:07;;;;;;;;;;;;;;;14.55;100.00;101724.88;5114126;28;19935;-30
2022/08/22 04:52:41;;;;;;;;;;;;;;;14.55;100.00;101729.66;5115381;28;19931;-31
2022/08/22 04:55:17;;;;;;;;;;;;;;;14.54;100.00;101723.19;5113406;28;20385;-31
2022/08/22 04:57:54;;;;;;;;;;;;;;;14.54;100.00;101725.19;5112527;28;19924;-30
2022/08/22 05:00:23;;;;;;;;;;;;;;;14.52;100.00;101727.44;5115185;28;19934;-31
2022/08/22 05:02:56;;;;;;;;;;;;;;;14.52;100.00;101731.09;5114765;28;19931;-31
2022/08/22 05:05:25;;;;;;;;;;;;;;;14.52;100.00;101731.09;5114571;28;19924;-33
2022/08/22 05:07:55;;;;;;;;;;;;;;;14.53;100.00;101734.75;5114281;28;19924;-30
2022/08/22 05:10:25;;;;;;;;;;;;;;;14.53;100.00;101737.53;5115017;28;20014;-30
2022/08/22 05:12:56;;;;;;;;;;;;;;;14.53;100.00;101732.75;5115359;28;19932;-31
2022/08/22 05:15:27;;;;;;;;;;;;;;;14.56;100.00;101745.38;5114088;28;20395;-31
2022/08/22 05:17:59;;;;;;;;;;;;;;;14.57;100.00;101745.06;5114073;28;19934;-31
2022/08/22 05:20:28;;;;;;;;;;;;;;;14.59;100.00;101748.38;5114398;28;20044;-30
2022/08/22 05:22:58;;;;;;;;;;;;;;;14.62;100.00;101753.38;5112591;28;19946;-31
2022/08/22 05:25:27;;;;;;;;;;;;;;;14.64;100.00;101745.50;5114483;28;19924;-32
2022/08/22 05:28:01;;;;;;;;;;;;;;;14.68;100.00;101751.34;5114861;28;19924;-37
2022/08/22 05:30:30;;;;;;;;;;;;;;;14.70;100.00;101747.09;5107245;28;19924;-34
2022/08/22 05:33:03;;;;;;;;;;;;;;;14.72;100.00;101747.63;5113593;28;19924;-31
2022/08/22 05:35:34;;;;;;;;;;;;;;;14.78;100.00;101746.41;5112978;28;19924;-30
2022/08/22 05:38:03;;;;;;;;;;;;;;;14.86;100.00;101749.66;5112723;28;20025;-31
2022/08/22 05:40:33;;;;;;;;;;;;;;;14.94;100.00;101749.78;5114253;28;19928;-31
2022/08/22 05:43:06;;;;;;;;;;;;;;;15.05;100.00;101750.44;5114222;28;19927;-30
2022/08/22 05:45:36;;;;;;;;;;;;;;;15.14;100.00;101741.00;5113325;28;19930;-32
2022/08/22 05:48:07;;;;;;;;;;;;;;;15.27;100.00;101744.16;5114094;28;19927;-34
2022/08/22 05:50:39;;;;;;;;;;;;;;;15.36;100.00;101742.31;5113501;28;20273;-40
2022/08/22 05:53:10;;;;;;;;;;;;;;;15.43;100.00;101740.72;5114065;28;19924;-34
2022/08/22 05:55:45;;;;;;;;;;;;;;;15.47;100.00;101743.75;5113788;28;20377;-32
2022/08/22 05:58:25;;;;;;;;;;;;;;;15.52;100.00;101750.13;5112663;28;20390;-31
2022/08/22 06:00:54;;;;;;;;;;;;;;;15.63;100.00;101750.78;5114244;28;19963;-31
2022/08/22 06:03:26;;;;;;;;;;;;;;;15.73;100.00;101753.41;5113244;28;19931;-35
2022/08/22 06:05:58;;;;;;;;;;;;;;;15.82;100.00;101754.34;5112742;28;20257;-36
2022/08/22 06:08:29;;;;;;;;;;;;;;;15.91;100.00;101753.63;5113062;28;19962;-30
2022/08/22 06:11:00;;;;;;;;;;;;;;;15.99;100.00;101761.31;5112607;28;20376;-30
2022/08/22 06:13:34;;;;;;;;;;;;;;;16.08;100.00;101754.66;5112168;28;19931;-31
2022/08/22 06:16:05;;;;;;;;;;;;;;;16.17;100.00;101755.59;5113382;28;20433;-36
2022/08/22 06:18:37;;;;;;;;;;;;;;;16.25;100.00;101751.16;5112844;28;19927;-30
2022/08/22 06:21:09;;;;;;;;;;;;;;;16.32;100.00;101753.56;5113212;28;19934;-36
2022/08/22 06:23:39;;;;;;;;;;;;;;;16.42;100.00;101751.34;5102701;28;19924;-33
2022/08/22 06:26:10;;;;;;;;;;;;;;;16.51;100.00;101752.25;5112703;28;19924;-30
2022/08/22 06:28:50;;;;;;;;;;;;;;;16.62;100.00;101754.81;5110866;28;20026;-36
2022/08/22 06:31:23;;;;;;;;;;;;;;;16.70;100.00;101752.13;5113532;28;19928;-36
2022/08/22 06:33:55;;;;;;;;;;;;;;;16.77;100.00;101749.72;5112455;28;19923;-34
2022/08/22 06:36:31;;;;;;;;;;;;;;;16.88;100.00;101753.09;5101876;28;19932;-32
2022/08/22 06:39:15;;;;;;;;;;;;;;;17.01;100.00;101748.53;5113338;28;20015;-35
2022/08/22 06:41:47;;;;;;;;;;;;;;;17.20;100.00;101746.34;5103004;28;19927;-31
2022/08/22 06:44:19;;;;;;;;;;;;;;;17.51;100.00;101747.19;5111208;28;19923;-40
2022/08/22 06:46:47;;;;;;;;;;;;;;;17.94;100.00;101745.75;5101096;28;19924;-36
2022/08/22 06:49:16;;;;;;;;;;;;;;;18.34;100.00;101747.31;5113121;28;19931;-33
2022/08/22 06:51:45;;;;;;;;;;;;;;;18.83;100.00;101745.19;5112863;28;19930;-34
2022/08/22 06:54:16;;;;;;;;;;;;;;;19.29;100.00;101755.78;5108546;28;19927;-35
2022/08/22 06:56:45;;;;;;;;;;;;;;;19.80;100.00;101754.81;5113032;28;20395;-36
2022/08/22 06:59:14;;;;;;;;;;;;;;;20.32;100.00;101751.69;5112519;28;19955;-32
2022/08/22 07:01:47;;;;;;;;;;;;;;;20.75;100.00;101757.09;5112327;28;19927;-32
2022/08/22 07:04:15;;;;;;;;;;;;;;;21.31;100.00;101749.88;5112682;28;19974;-33
2022/08/22 07:06:45;;;;;;;;;;;;;;;21.94;100.00;101746.78;5111968;28;19924;-33
2022/08/22 07:09:18;;;;;;;;;;;;;;;22.48;100.00;101753.03;5112106;28;19930;-32
2022/08/22 07:11:46;;;;;;;;;;;;;;;22.87;100.00;101745.72;5113007;28;19924;-39
2022/08/22 07:14:15;;;;;;;;;;;;;;;23.18;95.29;101744.97;5112069;28;19924;-35
2022/08/22 07:16:44;;;;;;;;;;;;;;;23.55;96.80;101739.97;5112160;28;19930;-32
2022/08/22 07:19:23;;;;;;;;;;;;;;;24.04;91.83;101746.09;5112605;28;20300;-32
2022/08/22 07:21:51;;;;;;;;;;;;;;;24.54;87.40;101735.91;5110703;28;20628;-34
2022/08/22 07:24:20;;;;;;;;;;;;;;;24.68;75.48;101729.69;5112645;28;19931;-32
2022/08/22 07:26:54;;;;;;;;;;;;;;;24.76;78.24;101734.34;5112264;28;19924;-31
2022/08/22 07:29:28;;;;;;;;;;;;;;;25.20;81.67;101728.31;5110707;28;19934;-31
2022/08/22 07:32:00;;;;;;;;;;;;;;;25.84;75.90;101736.09;5112095;28;19931;-31
2022/08/22 07:34:43;;;;;;;;;;;;;;;26.20;71.70;101734.63;5111883;28;19955;-40
2022/08/22 07:37:16;;;;;;;;;;;;;;;26.32;69.21;101725.88;5110801;28;20014;-31
2022/08/22 07:39:49;;;;;;;;;;;;;;;26.59;72.70;101725.81;5112619;28;19924;-34
2022/08/22 07:42:22;;;;;;;;;;;;;;;26.99;66.27;101722.28;5111744;28;19928;-37
2022/08/22 07:45:01;;;;;;;;;;;;;;;27.25;66.01;101710.72;5111627;28;19931;-30
2022/08/22 07:47:36;;;;;;;;;;;;;;;27.52;65.06;101711.41;5112345;28;19931;-31
2022/08/22 07:50:07;;;;;;;;;;;;;;;27.77;61.72;101714.56;5111262;28;19924;-36
2022/08/22 07:52:38;;;;;;;;;;;;;;;28.04;64.69;101707.38;5112272;28;19924;-35
2022/08/22 07:55:12;;;;;;;;;;;;;;;28.46;60.95;101695.38;5112159;28;19927;-40
2022/08/22 07:57:42;;;;;;;;;;;;;;;28.88;57.40;101702.59;5110933;28;19931;-38
2022/08/22 08:00:13;;;;;;;;;;;;;;;29.03;54.01;101710.03;5112410;28;20376;-32
2022/08/22 08:02:45;;;;;;;;;;;;;;;28.87;53.45;101698.06;5112097;28;19935;-34
2022/08/22 08:05:14;;;;;;;;;;;;;;;28.81;51.16;101699.69;5111046;28;19928;-35
2022/08/22 08:07:43;;;;;;;;;;;;;;;29.02;54.06;101707.56;5111802;28;20250;-34
2022/08/22 08:10:13;;;;;;;;;;;;;;;29.32;50.20;101704.38;5111279;28;19924;-35
2022/08/22 08:12:44;;;;;;;;;;;;;;;29.33;50.21;101695.34;5111311;28;19923;-38
2022/08/22 08:15:28;;;;;;;;;;;;;;;29.36;51.07;101693.69;5112101;28;19924;-42
2022/08/22 08:17:58;;;;;;;;;;;;;;;29.45;50.14;101697.00;5111005;28;19934;-39
2022/08/22 08:20:29;;;;;;;;;;;;;;;29.61;48.35;101700.31;5111670;28;19924;-32
2022/08/22 08:22:58;;;;;;;;;;;;;;;29.66;50.64;101690.47;5111976;28;19931;-37
2022/08/22 08:25:28;;;;;;;;;;;;;;;29.95;45.77;101697.88;5111161;28;19928;-34
2022/08/22 08:30:46;;;;;;;;;;;;;;;29.66;48.22;101697.03;5111811;28;19927;-34
2022/08/22 08:33:16;;;;;;;;;;;;;;;29.61;48.59;101699.50;5112589;28;19924;-33
2022/08/22 08:35:57;;;;;;;;;;;;;;;29.63;47.98;101697.84;5115439;28;20405;-32
2022/08/22 08:38:32;;;;;;;;;;;;;;;29.78;49.49;101693.72;5115517;28;20384;-34
2022/08/22 08:41:13;;;;;;;;;;;;;;;29.84;47.86;101694.16;5114335;28;19928;-35
2022/08/22 08:43:46;;;;;;;;;;;;;;;29.32;46.92;101696.56;5116083;28;19928;-35
2022/08/22 08:46:18;;;;;;;;;;;;;;;28.93;50.42;101687.84;5114680;28;19923;-39
2022/08/22 08:48:55;;;;;;;;;;;;;;;28.62;50.26;101695.03;5114983;28;19932;-39
2022/08/22 08:51:33;;;;;;;;;;;;;;;28.39;50.44;101692.47;5114482;28;20351;-33
2022/08/22 08:54:13;;;;;;;;;;;;;;;28.10;53.52;101702.09;5115156;28;19972;-36
2022/08/22 08:56:49;;;;;;;;;;;;;;;28.00;54.08;101697.91;5115381;28;20072;-40
2022/08/22 08:59:29;;;;;;;;;;;;;;;27.85;53.22;101701.91;5114944;28;20373;-41
2022/08/22 09:02:09;;;;;;;;;;;;;;;27.48;53.22;101707.69;5114878;28;19931;-34
2022/08/22 09:05:11;;;;;;;;;;;;;;;27.28;53.71;101695.59;5115278;28;19978;-38
2022/08/22 09:07:47;;;;;;;;;;;;;;;27.55;59.20;101702.03;5114146;28;19924;-35
2022/08/22 09:10:27;;;;;;;;;;;;;;;27.77;53.16;101700.22;5114741;28;19924;-34
2022/08/22 09:13:05;;;;;;;;;;;;;;;27.67;54.21;101704.63;5109377;28;20015;-34
2022/08/22 09:15:50;;;;;;;;;;;;;;;27.68;53.26;101700.53;5111341;28;19963;-37
2022/08/22 09:18:46;;;;;;;;;;;;;;;27.94;51.86;101699.53;5114985;28;19932;-39
2022/08/22 09:21:26;;;;;;;;;;;;;;;28.02;53.04;101698.34;5114240;28;19934;-34
2022/08/22 09:24:11;;;;;;;;;;;;;;;28.01;52.25;101695.88;5114717;28;19924;-34
2022/08/22 09:26:46;;;;;;;;;;;;;;;27.87;53.30;101701.50;5111766;28;20125;-34
2022/08/22 09:29:32;;;;;;;;;;;;;;;27.65;53.07;101692.72;5112746;28;19935;-34
2022/08/22 09:32:07;;;;;;;;;;;;;;;27.43;53.94;101685.09;5113130;28;19930;-36
2022/08/22 09:34:51;;;;;;;;;;;;;;;27.38;54.19;101688.31;5111579;28;19932;-39
2022/08/22 09:37:24;;;;;;;;;;;;;;;27.58;54.91;101684.03;5113944;28;19924;-37
2022/08/22 09:39:59;;;;;;;;;;;;;;;28.05;53.06;101680.34;5114603;28;19931;-41
2022/08/22 09:42:30;;;;;;;;;;;;;;;28.39;50.79;101683.84;5113739;28;20383;-34
2022/08/22 09:45:18;;;;;;;;;;;;;;;28.59;53.77;101683.53;5110334;28;19934;-32
2022/08/22 09:47:51;;;;;;;;;;;;;;;28.89;50.94;101678.38;5101300;28;20467;-33
2022/08/22 09:50:31;;;;;;;;;;;;;;;29.16;47.49;101678.06;5112525;28;19928;-32
2022/08/22 09:53:05;;;;;;;;;;;;;;;29.07;47.02;101669.81;5103552;28;19924;-32
2022/08/22 09:55:39;;;;;;;;;;;;;;;29.33;47.97;101677.25;5113923;28;19939;-33
2022/08/22 09:58:12;;;;;;;;;;;;;;;29.48;46.81;101678.94;5102063;28;19931;-39
2022/08/22 10:00:44;;;;;;;;;;;;;;;29.60;48.38;101675.66;5113644;28;19931;-31
2022/08/22 10:03:17;;;;;;;;;;;;;;;29.73;44.25;101665.41;5113870;28;20392;-36
2022/08/22 10:05:46;;;;;;;;;;;;;;;29.66;45.84;101661.69;5113119;28;20436;-30
2022/08/22 10:08:19;;;;;;;;;;;;;;;29.35;44.31;101669.88;5113242;28;19927;-31
2022/08/22 10:11:00;;;;;;;;;;;;;;;29.14;41.97;101670.66;5110252;28;20026;-38
2022/08/22 10:13:36;;;;;;;;;;;;;;;29.06;45.32;101662.41;5113590;28;20349;-30
2022/08/22 10:16:14;;;;;;;;;;;;;;;28.99;46.63;101668.13;5110637;28;19924;-32
2022/08/22 10:18:49;;;;;;;;;;;;;;;28.96;43.15;101661.16;5112417;28;19947;-34
2022/08/22 10:21:28;;;;;;;;;;;;;;;28.83;45.12;101668.50;5113772;28;20452;-30
2022/08/22 10:23:59;;;;;;;;;;;;;;;28.57;44.50;101666.75;5113471;28;19928;-31
2022/08/22 10:26:33;;;;;;;;;;;;;;;28.38;45.92;101664.97;5112252;28;20392;-30
2022/08/22 10:29:08;;;;;;;;;;;;;;;28.17;47.67;101661.97;5113285;28;19930;-31
2022/08/22 10:31:38;;;;;;;;;;;;;;;28.16;47.14;101660.31;5112866;28;20455;-38
2022/08/22 10:34:28;;;;;;;;;;;;;;;28.12;47.81;101670.94;5103123;28;19981;-31
2022/08/22 10:37:01;;;;;;;;;;;;;;;27.91;45.02;101680.22;5113050;28;20330;-31
2022/08/22 10:39:33;;;;;;;;;;;;;;;27.43;46.30;101671.59;5101597;28;19923;-36
2022/08/22 10:42:19;;;;;;;;;;;;;;;27.11;48.17;101670.47;5113115;28;20026;-42
2022/08/22 10:44:56;;;;;;;;;;;;;;;27.02;49.96;101670.75;5103665;28;19923;-34
2022/08/22 10:47:28;;;;;;;;;;;;;;;27.19;51.34;101662.75;5112635;28;19927;-31
2022/08/22 10:49:58;;;;;;;;;;;;;;;27.48;50.42;101664.69;5112192;28;19934;-38
2022/08/22 10:52:30;;;;;;;;;;;;;;;27.77;50.13;101666.63;5112205;28;19938;-33
2022/08/22 10:54:59;;;;;;;;;;;;;;;27.99;48.64;101666.75;5112794;28;19934;-38
2022/08/22 10:57:32;;;;;;;;;;;;;;;28.20;47.33;101660.34;5111996;28;19962;-30
2022/08/22 11:00:05;;;;;;;;;;;;;;;28.00;44.45;101654.03;5112303;28;20346;-30
2022/08/22 11:02:39;;;;;;;;;;;;;;;27.90;46.39;101667.13;5109578;28;19973;-32
2022/08/22 11:05:22;;;;;;;;;;;;;;;27.77;45.75;101662.91;5112774;28;19972;-36
2022/08/22 11:07:57;;;;;;;;;;;;;;;27.78;46.17;101668.22;5110260;28;19931;-34
2022/08/22 11:10:31;;;;;;;;;;;;;;;27.98;47.54;101651.56;5112719;28;20400;-30
2022/08/22 11:13:11;;;;;;;;;;;;;;;28.32;46.67;101648.56;5112215;28;20296;-31
2022/08/22 11:15:51;;;;;;;;;;;;;;;28.75;45.13;101653.25;5112241;28;19930;-30
2022/08/22 11:18:22;;;;;;;;;;;;;;;29.10;45.07;101651.75;5112503;28;19928;-34
2022/08/22 11:20:56;;;;;;;;;;;;;;;29.51;43.20;101654.28;5100692;28;19924;-31
2022/08/22 11:23:31;;;;;;;;;;;;;;;29.82;44.09;101651.41;5112712;28;19931;-30
2022/08/22 11:26:06;;;;;;;;;;;;;;;30.05;40.18;101656.75;5112452;28;20000;-34
2022/08/22 11:28:55;;;;;;;;;;;;;;;29.95;39.65;101648.94;5110789;28;19932;-35
2022/08/22 11:31:33;;;;;;;;;;;;;;;29.80;40.41;101648.09;5099781;28;19924;-30
2022/08/22 11:34:08;;;;;;;;;;;;;;;29.53;39.79;101646.91;5101764;28;19971;-30
2022/08/22 11:36:39;;;;;;;;;;;;;;;29.40;41.63;101655.09;5112059;28;19927;-30
2022/08/22 11:39:16;;;;;;;;;;;;;;;29.31;42.43;101648.91;5109839;28;19978;-34
2022/08/22 11:41:50;;;;;;;;;;;;;;;29.51;41.84;101637.84;5110919;28;19930;-30
2022/08/22 11:44:22;;;;;;;;;;;;;;;29.58;41.21;101646.47;5100060;28;19934;-30
2022/08/22 11:46:55;;;;;;;;;;;;;;;29.60;40.89;101631.69;5110474;28;19931;-33
2022/08/22 11:49:33;;;;;;;;;;;;;;;29.73;40.21;101633.75;5109941;28;19924;-30
2022/08/22 11:52:05;;;;;;;;;;;;;;;29.60;39.16;101634.56;5101485;28;19954;-30
2022/08/22 11:54:49;;;;;;;;;;;;;;;29.43;41.13;101633.31;5111007;28;20347;-34
2022/08/22 11:57:24;;;;;;;;;;;;;;;29.29;41.62;101634.13;5100540;28;19930;-34
2022/08/22 11:59:58;;;;;;;;;;;;;;;29.47;42.70;101631.28;5100442;28;19928;-29
2022/08/22 12:02:31;;;;;;;;;;;;;;;29.73;39.88;101641.56;5109607;28;20250;-31
2022/08/22 12:05:05;;;;;;;;;;;;;;;29.73;40.73;101636.63;5098881;28;19935;-30
2022/08/22 12:07:37;;;;;;;;;;;;;;;29.64;40.62;101635.38;5110985;28;19927;-31
2022/08/22 12:10:09;;;;;;;;;;;;;;;29.54;41.24;101625.53;5114376;28;19932;-30
2022/08/22 12:12:52;;;;;;;;;;;;;;;29.38;40.78;101630.81;5113865;28;19934;-30
2022/08/22 12:15:22;;;;;;;;;;;;;;;29.30;40.75;101623.44;5103585;28;19940;-35
2022/08/22 12:18:05;;;;;;;;;;;;;;;29.10;41.23;101618.06;5112875;28;19923;-33
2022/08/22 12:20:54;;;;;;;;;;;;;;;28.93;41.02;101621.75;5103972;28;19924;-33
2022/08/22 12:23:33;;;;;;;;;;;;;;;28.98;42.29;101617.63;5105680;28;20292;-34
2022/08/22 12:26:20;;;;;;;;;;;;;;;29.20;42.65;101619.31;5114171;28;20005;-30
2022/08/22 12:28:55;;;;;;;;;;;;;;;29.41;42.47;101616.47;5115620;28;20027;-33
2022/08/22 12:31:39;;;;;;;;;;;;;;;29.47;41.88;101620.59;5115100;28;19931;-39
2022/08/22 12:34:13;;;;;;;;;;;;;;;29.46;40.91;101618.94;5115305;28;19928;-30
2022/08/22 12:37:01;;;;;;;;;;;;;;;29.46;41.34;101612.38;5115227;28;19924;-30
2022/08/22 12:39:50;;;;;;;;;;;;;;;29.50;40.83;101612.38;5109886;28;19924;-31
2022/08/22 12:42:27;;;;;;;;;;;;;;;29.51;40.78;101611.16;5115314;28;19928;-34
2022/08/22 12:45:11;;;;;;;;;;;;;;;29.34;41.34;101612.78;5114760;28;19959;-42
2022/08/22 12:47:47;;;;;;;;;;;;;;;29.18;41.59;101615.22;5113803;28;19947;-38
2022/08/22 12:50:19;;;;;;;;;;;;;;;29.11;42.12;101616.84;5116000;28;19923;-30
2022/08/22 12:52:56;;;;;;;;;;;;;;;29.04;41.88;101608.19;5111638;28;19935;-34
2022/08/22 12:55:34;;;;;;;;;;;;;;;28.78;41.81;101606.47;5109137;28;19997;-38
2022/08/22 12:58:06;;;;;;;;;;;;;;;28.51;40.87;101598.59;5115047;28;19924;-32
2022/08/22 13:00:35;;;;;;;;;;;;;;;28.33;41.65;101596.47;5115393;28;19962;-39
2022/08/22 13:03:05;;;;;;;;;;;;;;;28.26;41.46;101599.31;5113814;28;19931;-34
2022/08/22 13:05:34;;;;;;;;;;;;;;;28.30;42.64;101591.53;5115113;28;20033;-35
2022/08/22 13:08:09;;;;;;;;;;;;;;;28.12;41.39;101590.59;5114644;28;19989;-30
2022/08/22 13:10:42;;;;;;;;;;;;;;;28.13;43.01;101584.47;5114762;28;19952;-31
2022/08/22 13:13:14;;;;;;;;;;;;;;;28.16;42.00;101582.84;5113827;28;19923;-30
2022/08/22 13:15:54;;;;;;;;;;;;;;;28.28;42.49;101576.75;5113367;28;20019;-30